Terminal Aerodrome Forecast
Issued by NWS Tampa Bay Area, FL

Home | Current Version | Previous Version | Text Only | Print | Product List | Glossary On
Versions: 1 2 3 4 5 6 7 8 9 10 11 12 13 14 15 16 17 18 19 20 21 22 23 24 25 26
000
FTUS42 KTBW 010539
TAFTPA
TAF
KTPA 010539Z 0106/0206 20008KT P6SM SCT025 BKN080
     FM011400 21013KT P6SM VCSH SCT030 OVC100
     FM011800 22015G25KT P6SM VCTS SCT035CB BKN050 OVC100
     FM020100 21010KT P6SM -RA VCTS SCT025CB BKN040=

USA.gov is the U.S. government's official web portal to all federal, state and local government web resources and services.